Time;durP1;ratioP1;P1;durP2;ratioP2;P2;SDS_P1;SDS_P2;PMS_P1;PMS_P2;Temp;Humidity;BMP_temperature;BMP_pressure;BME280_temperature;BME280_humidity;BME280_pressure;Samples;Min_cycle;Max_cycle;Signal;HPM_P1;HPM_P2
2023/05/29 00:02:14;;;;;;;3.05;0.90;;;8.90;1.00;;;;;;4966290;28;20474;-76
2023/05/29 00:04:40;;;;;;;4.22;1.40;;;8.90;1.00;;;;;;4967931;28;20041;-75
2023/05/29 00:07:06;;;;;;;4.60;1.20;;;8.90;99.90;;;;;;4984348;28;20077;-75
2023/05/29 00:09:31;;;;;;;7.50;1.60;;;8.80;99.90;;;;;;4991343;28;20046;-76
2023/05/29 00:11:57;;;;;;;6.47;1.73;;;8.90;99.90;;;;;;4974503;28;20485;-75
2023/05/29 00:14:23;;;;;;;6.13;1.30;;;8.90;99.90;;;;;;4973693;28;20061;-76
2023/05/29 00:16:50;;;;;;;2.97;0.90;;;8.90;99.90;;;;;;4974802;28;20046;-76
2023/05/29 00:19:19;;;;;;;5.10;1.35;;;8.80;99.90;;;;;;4974251;28;20029;-76
2023/05/29 00:21:47;;;;;;;2.88;0.93;;;8.80;99.90;;;;;;4989823;28;20038;-76
2023/05/29 00:24:17;;;;;;;4.43;1.13;;;8.70;1.00;;;;;;4990211;28;20121;-76
2023/05/29 00:26:43;;;;;;;6.53;1.60;;;8.70;99.90;;;;;;4990265;28;20046;-76
2023/05/29 00:29:09;;;;;;;7.57;1.85;;;8.80;99.90;;;;;;4976908;28;20046;-76
2023/05/29 00:31:36;;;;;;;5.25;1.20;;;8.80;99.90;;;;;;4975530;28;20129;-76
2023/05/29 00:34:02;;;;;;;2.40;0.80;;;8.70;99.90;;;;;;4993004;28;20528;-76
2023/05/29 00:36:29;;;;;;;1.67;0.70;;;8.70;99.90;;;;;;4986657;28;20125;-76
2023/05/29 00:38:55;;;;;;;2.95;0.85;;;8.70;1.00;;;;;;4994660;28;20152;-76
2023/05/29 00:41:21;;;;;;;6.05;1.35;;;8.70;99.90;;;;;;4993990;28;20152;-76
2023/05/29 00:43:46;;;;;;;5.80;1.23;;;8.70;99.90;;;;;;4978889;28;20496;-76
2023/05/29 00:46:15;;;;;;;3.05;0.90;;;8.70;99.90;;;;;;4988287;28;20045;-76
2023/05/29 00:48:42;;;;;;;2.45;0.63;;;8.60;99.90;;;;;;4993240;28;20050;-76
2023/05/29 00:51:10;;;;;;;4.55;1.00;;;8.60;99.90;;;;;;4993581;28;20050;-76
2023/05/29 00:53:37;;;;;;;6.03;1.50;;;8.60;99.90;;;;;;4985252;28;20078;-76
2023/05/29 00:56:04;;;;;;;6.30;1.67;;;8.60;99.90;;;;;;4992919;28;20054;-76
2023/05/29 00:58:30;;;;;;;6.57;1.73;;;8.70;99.90;;;;;;4993091;28;20042;-76
2023/05/29 01:00:56;;;;;;;11.13;1.90;;;8.70;99.90;;;;;;4994719;28;20374;-76
2023/05/29 01:03:23;;;;;;;3.53;1.00;;;8.70;94.80;;;;;;4976498;28;20124;-76
2023/05/29 01:05:49;;;;;;;9.57;2.00;;;8.70;99.90;;;;;;4986950;28;20050;-76
2023/05/29 01:08:15;;;;;;;6.22;1.42;;;8.70;53.40;;;;;;4977126;28;20121;-76
2023/05/29 01:10:42;;;;;;;3.47;0.93;;;8.70;99.90;;;;;;4990812;28;20054;-76
2023/05/29 01:13:15;;;;;;;4.93;1.35;;;8.70;99.90;;;;;;4994437;28;20050;-76
2023/05/29 01:15:52;;;;;;;4.35;1.30;;;8.70;99.90;;;;;;4997788;28;20588;-76
2023/05/29 01:18:20;;;;;;;;;;;8.70;99.90;;;;;;4984022;28;20050;-76
2023/05/29 01:21:21;;;;;;;3.40;1.10;;;8.60;99.90;;;;;;4995257;28;19917;-76
2023/05/29 01:23:57;;;;;;;3.80;1.40;;;8.60;99.90;;;;;;4988739;28;20042;-76
2023/05/29 01:26:46;;;;;;;3.85;1.30;;;8.60;50.10;;;;;;4991203;28;20413;-76
2023/05/29 01:29:15;;;;;;;2.17;0.73;;;8.60;99.90;;;;;;4978588;28;20073;-76
2023/05/29 01:31:42;;;;;;;1.83;0.52;;;8.60;99.90;;;;;;4982306;28;20042;-76
2023/05/29 01:34:08;;;;;;;1.20;0.60;;;8.60;99.90;;;;;;4979583;28;20044;-76
2023/05/29 01:36:35;;;;;;;1.20;0.40;;;8.60;99.90;;;;;;4991319;28;20050;-76
2023/05/29 01:39:01;;;;;;;1.52;0.55;;;8.60;99.90;;;;;;4982163;28;20069;-76
2023/05/29 01:41:27;;;;;;;0.98;0.55;;;8.60;99.90;;;;;;4962277;28;20053;-76
2023/05/29 01:43:54;;;;;;;1.67;0.60;;;8.60;99.90;;;;;;4992238;28;20068;-77
2023/05/29 01:46:20;;;;;;;;;;;8.60;99.90;;;;;;4980947;28;20050;-76
2023/05/29 01:48:46;;;;;;;1.33;0.30;;;8.60;99.90;;;;;;4968375;28;20337;-71
2023/05/29 01:51:12;;;;;;;0.65;0.22;;;8.70;99.90;;;;;;4974869;28;20078;-72
2023/05/29 01:53:42;;;;;;;2.90;0.82;;;8.70;99.90;;;;;;4981258;28;20505;-72
2023/05/29 01:56:08;;;;;;;2.20;0.68;;;8.70;99.90;;;;;;4986656;28;20086;-71
2023/05/29 01:58:35;;;;;;;2.33;0.70;;;8.80;99.90;;;;;;4966305;28;20400;-71
2023/05/29 02:01:03;;;;;;;2.55;0.60;;;8.70;99.90;;;;;;4993355;28;20057;-71
2023/05/29 02:03:29;;;;;;;0.93;0.40;;;8.80;99.90;;;;;;4989679;28;20508;-71
2023/05/29 02:05:59;;;;;;;1.17;0.50;;;8.70;99.90;;;;;;4991873;28;20041;-72
2023/05/29 02:08:24;;;;;;;3.15;0.80;;;8.70;99.90;;;;;;5011210;28;20129;-71
2023/05/29 02:10:50;;;;;;;1.75;0.60;;;8.70;99.90;;;;;;4993947;28;20045;-71
2023/05/29 02:13:17;;;;;;;3.45;0.65;;;8.80;99.90;;;;;;4984995;28;20037;-71
2023/05/29 02:15:43;;;;;;;;;;;8.80;99.90;;;;;;5011377;28;20061;-71
2023/05/29 02:18:14;;;;;;;2.28;0.80;;;8.80;99.90;;;;;;4983915;28;19980;-71
2023/05/29 02:20:41;;;;;;;2.97;0.90;;;8.80;99.90;;;;;;4987759;28;20084;-71
2023/05/29 02:23:09;;;;;;;2.63;1.00;;;8.80;99.90;;;;;;4987489;28;20037;-72
2023/05/29 02:25:35;;;;;;;2.13;0.70;;;8.80;99.90;;;;;;4982007;28;20041;-71
2023/05/29 02:28:00;;;;;;;;;;;8.80;99.90;;;;;;4994044;28;20073;-72
2023/05/29 02:30:27;;;;;;;3.92;0.80;;;8.70;1.00;;;;;;4984652;28;19921;-71
2023/05/29 02:32:52;;;;;;;1.33;0.70;;;8.80;99.90;;;;;;4993299;28;20129;-71
2023/05/29 02:35:20;;;;;;;1.05;0.52;;;8.80;1.00;;;;;;4981975;28;20124;-71
2023/05/29 02:37:46;;;;;;;1.23;0.50;;;8.80;1.00;;;;;;4993969;28;20034;-71
2023/05/29 02:40:12;;;;;;;1.05;0.50;;;8.70;1.00;;;;;;4985051;28;20505;-71
2023/05/29 02:42:37;;;;;;;0.98;0.60;;;8.70;1.00;;;;;;4982319;28;20049;-71
2023/05/29 02:45:04;;;;;;;0.70;0.43;;;8.60;1.00;;;;;;4989544;28;20441;-71
2023/05/29 02:47:29;;;;;;;0.90;0.22;;;8.50;1.00;;;;;;4974558;28;20046;-71
2023/05/29 02:49:55;;;;;;;1.55;0.55;;;8.50;1.00;;;;;;4986010;28;20068;-71
2023/05/29 02:52:22;;;;;;;0.80;0.30;;;8.50;1.00;;;;;;4977115;28;20068;-70
2023/05/29 02:54:49;;;;;;;0.85;0.30;;;8.50;1.00;;;;;;4983475;28;20447;-70
2023/05/29 02:57:15;;;;;;;1.67;0.43;;;8.50;1.00;;;;;;4993195;28;20045;-70
2023/05/29 02:59:41;;;;;;;;;;;8.60;1.00;;;;;;4974973;28;20044;-70
2023/05/29 03:02:06;;;;;;;1.20;0.45;;;8.60;11.80;;;;;;4993137;28;19917;-71
2023/05/29 03:04:32;;;;;;;2.28;0.50;;;8.70;25.10;;;;;;4989414;28;20041;-71
2023/05/29 03:06:58;;;;;;;1.27;0.40;;;8.80;17.40;;;;;;4975034;28;20046;-71
2023/05/29 03:09:23;;;;;;;2.00;0.50;;;8.80;35.50;;;;;;4958043;28;20116;-71
2023/05/29 03:11:50;;;;;;;1.98;0.70;;;8.90;12.00;;;;;;4957819;28;20585;-71
2023/05/29 03:14:16;;;;;;;1.65;0.57;;;8.90;1.00;;;;;;4975312;28;20050;-71
2023/05/29 03:16:43;;;;;;;1.25;0.60;;;8.80;1.00;;;;;;4973662;28;20470;-71
2023/05/29 03:19:09;;;;;;;2.15;0.63;;;8.90;1.00;;;;;;4959885;28;20482;-71
2023/05/29 03:21:35;;;;;;;2.45;0.82;;;8.80;1.00;;;;;;4991878;28;20038;-71
2023/05/29 03:24:02;;;;;;;2.22;0.60;;;8.90;99.90;;;;;;4980387;28;20505;-71
2023/05/29 03:26:29;;;;;;;1.17;0.57;;;8.90;99.90;;;;;;4992291;28;20053;-71
2023/05/29 03:28:54;;;;;;;;;;;8.90;99.90;;;;;;4993134;28;20052;-71
2023/05/29 03:31:21;;;;;;;3.80;1.20;;;9.00;99.90;;;;;;4973890;28;19922;-71
2023/05/29 03:33:47;;;;;;;;;;;9.10;99.90;;;;;;4954453;28;20398;-71
2023/05/29 03:36:12;;;;;;;2.47;0.85;;;9.10;99.90;;;;;;4974268;28;20458;-71
2023/05/29 03:38:38;;;;;;;2.70;0.88;;;9.20;99.90;;;;;;4976715;28;20066;-71
2023/05/29 03:41:04;;;;;;;6.70;1.80;;;9.30;99.90;;;;;;4980781;28;20431;-71
2023/05/29 03:43:29;;;;;;;5.95;1.73;;;9.30;99.90;;;;;;4970527;28;20047;-71
2023/05/29 03:45:55;;;;;;;5.30;1.60;;;9.40;99.90;;;;;;4975988;28;20542;-71
2023/05/29 03:48:21;;;;;;;3.17;1.38;;;9.40;99.90;;;;;;4954768;28;20541;-71
2023/05/29 03:50:47;;;;;;;6.72;1.85;;;9.50;99.90;;;;;;4977560;28;20062;-71
2023/05/29 03:53:12;;;;;;;9.98;1.88;;;9.50;1.00;;;;;;4970310;28;20101;-72
2023/05/29 03:55:38;;;;;;;8.50;2.00;;;9.50;99.90;;;;;;4972631;28;20447;-71
2023/05/29 03:58:04;;;;;;;4.75;1.70;;;9.60;99.90;;;;;;4970350;28;20123;-71
2023/05/29 04:00:30;;;;;;;7.32;1.83;;;9.60;99.90;;;;;;4985464;28;20074;-71
2023/05/29 04:02:56;;;;;;;4.50;1.40;;;9.60;99.90;;;;;;4980310;28;20070;-71
2023/05/29 04:05:22;;;;;;;6.38;1.80;;;9.60;99.90;;;;;;4963861;28;20101;-71
2023/05/29 04:07:47;;;;;;;3.70;1.40;;;9.60;44.50;;;;;;4979252;28;20039;-71
2023/05/29 04:10:13;;;;;;;7.25;1.60;;;9.60;4.00;;;;;;4977722;28;20497;-71
2023/05/29 04:12:39;;;;;;;7.35;1.70;;;9.60;1.00;;;;;;4987935;28;20038;-71
2023/05/29 04:15:05;;;;;;;4.82;1.50;;;9.60;1.00;;;;;;4987597;28;20042;-71
2023/05/29 04:17:31;;;;;;;9.40;1.95;;;9.70;1.00;;;;;;4993310;28;20450;-71
2023/05/29 04:19:57;;;;;;;8.55;1.80;;;9.70;1.00;;;;;;4988045;28;20056;-71
2023/05/29 04:22:23;;;;;;;7.78;1.90;;;9.80;1.00;;;;;;4980333;28;20481;-72
2023/05/29 04:24:49;;;;;;;7.05;1.70;;;9.80;99.90;;;;;;4977979;28;20042;-71
2023/05/29 04:27:14;;;;;;;;;;;9.90;99.90;;;;;;4985355;28;20468;-71
2023/05/29 04:29:43;;;;;;;8.63;1.63;;;9.90;99.90;;;;;;4984046;28;20048;-71
2023/05/29 04:32:11;;;;;;;8.23;1.75;;;9.90;99.90;;;;;;4989515;28;20046;-71
2023/05/29 04:34:38;;;;;;;6.07;1.75;;;9.90;99.90;;;;;;4989044;28;20093;-71
2023/05/29 04:37:05;;;;;;;6.82;1.67;;;9.90;99.90;;;;;;4975841;28;20108;-71
2023/05/29 04:39:31;;;;;;;3.97;1.52;;;9.80;99.90;;;;;;4978061;28;20089;-71
2023/05/29 04:41:58;;;;;;;8.77;2.17;;;9.80;99.90;;;;;;4978714;28;20502;-71
2023/05/29 04:44:29;;;;;;;6.18;1.92;;;9.80;99.90;;;;;;4974333;28;20073;-71
2023/05/29 04:46:56;;;;;;;7.60;1.77;;;9.90;99.90;;;;;;4980362;28;20051;-71
2023/05/29 04:49:23;;;;;;;7.55;1.60;;;9.90;99.90;;;;;;4964535;28;20038;-71
2023/05/29 04:51:52;;;;;;;8.73;1.80;;;9.90;99.90;;;;;;4980909;28;20046;-71
2023/05/29 04:54:19;;;;;;;11.23;2.38;;;9.90;99.90;;;;;;4972751;28;20050;-71
2023/05/29 04:56:45;;;;;;;10.55;2.25;;;9.90;99.90;;;;;;4966946;28;20043;-71
2023/05/29 04:59:12;;;;;;;;;;;9.90;99.90;;;;;;4973607;28;20359;-71
2023/05/29 05:01:37;;;;;;;7.22;2.30;;;10.00;99.90;;;;;;4980620;28;20028;-71
2023/05/29 05:04:03;;;;;;;13.57;2.80;;;10.00;99.90;;;;;;4976024;28;20411;-71
2023/05/29 05:06:29;;;;;;;8.27;2.13;;;10.10;99.90;;;;;;4980063;28;20050;-71
2023/05/29 05:08:55;;;;;;;8.45;1.92;;;10.20;84.20;;;;;;4975899;28;20056;-71
2023/05/29 05:11:22;;;;;;;6.63;2.15;;;10.20;63.20;;;;;;4982981;28;20050;-71
2023/05/29 05:13:48;;;;;;;8.10;1.98;;;10.30;62.00;;;;;;4986966;28;20450;-71
2023/05/29 05:16:14;;;;;;;8.38;2.33;;;10.30;94.10;;;;;;4970154;28;20086;-72
2023/05/29 05:18:40;;;;;;;9.88;2.30;;;10.30;55.70;;;;;;4970590;28;20125;-71
2023/05/29 05:21:06;;;;;;;8.43;2.53;;;10.40;21.60;;;;;;4986947;28;20038;-72
2023/05/29 05:23:32;;;;;;;8.68;1.98;;;10.50;1.90;;;;;;4989612;28;20038;-72
2023/05/29 05:25:58;;;;;;;9.98;2.53;;;10.50;24.70;;;;;;4989306;28;20105;-72
2023/05/29 05:28:23;;;;;;;5.18;2.05;;;10.60;1.40;;;;;;4987739;28;20434;-71
2023/05/29 05:30:49;;;;;;;16.42;3.25;;;10.70;1.00;;;;;;4990279;28;20042;-71
2023/05/29 05:33:15;;;;;;;8.77;2.40;;;10.70;55.00;;;;;;4978804;28;20137;-72
2023/05/29 05:35:41;;;;;;;7.82;1.92;;;10.80;23.70;;;;;;4976318;28;20073;-72
2023/05/29 05:38:07;;;;;;;10.68;2.40;;;10.80;11.60;;;;;;4988317;28;20038;-72
2023/05/29 05:40:33;;;;;;;6.25;1.90;;;10.90;1.00;;;;;;4994417;28;20092;-72
2023/05/29 05:42:59;;;;;;;4.40;1.67;;;11.00;1.00;;;;;;4985680;28;20397;-72
2023/05/29 05:45:24;;;;;;;5.38;2.28;;;11.20;9.70;;;;;;4986951;28;20115;-72
2023/05/29 05:47:50;;;;;;;10.73;2.53;;;11.30;60.80;;;;;;4993303;28;20046;-72
2023/05/29 05:50:16;;;;;;;10.25;2.55;;;11.30;23.70;;;;;;4963832;28;20045;-71
2023/05/29 05:52:41;;;;;;;13.52;2.80;;;11.40;1.00;;;;;;4976120;28;20045;-72
2023/05/29 05:55:08;;;;;;;13.27;2.90;;;11.40;1.00;;;;;;4961859;28;20552;-71
2023/05/29 05:57:35;;;;;;;9.52;2.55;;;11.40;1.00;;;;;;4980253;28;20041;-71
2023/05/29 06:00:04;;;;;;;6.07;2.05;;;11.40;1.00;;;;;;4975777;28;20982;-72
2023/05/29 06:02:30;;;;;;;7.95;2.30;;;11.50;1.00;;;;;;4986251;28;20504;-71
2023/05/29 06:04:56;;;;;;;12.70;3.00;;;11.60;1.00;;;;;;4992163;28;20058;-71
2023/05/29 06:07:21;;;;;;;7.18;2.65;;;11.60;99.90;;;;;;4974649;28;20149;-71
2023/05/29 06:09:47;;;;;;;10.13;2.78;;;11.60;99.90;;;;;;4993922;28;20054;-71
2023/05/29 06:12:13;;;;;;;11.07;2.67;;;11.60;1.00;;;;;;4981372;28;20437;-71
2023/05/29 06:14:38;;;;;;;10.88;3.03;;;11.60;1.00;;;;;;4994032;28;20042;-71
2023/05/29 06:17:04;;;;;;;9.38;2.55;;;11.60;1.00;;;;;;4971235;28;20509;-71
2023/05/29 06:19:30;;;;;;;10.02;2.60;;;11.60;1.00;;;;;;4976844;28;20038;-70
2023/05/29 06:21:57;;;;;;;10.27;2.78;;;11.60;1.00;;;;;;4993103;28;20121;-71
2023/05/29 06:24:22;;;;;;;10.15;2.35;;;11.60;1.00;;;;;;4977417;28;20068;-71
2023/05/29 06:26:49;;;;;;;9.10;2.70;;;11.60;99.90;;;;;;4983686;28;20373;-70
2023/05/29 06:29:15;;;;;;;13.25;3.50;;;11.60;99.90;;;;;;4977368;28;20444;-70
2023/05/29 06:31:40;;;;;;;11.63;2.80;;;11.70;99.90;;;;;;5011374;28;20042;-71
2023/05/29 06:34:06;;;;;;;16.10;3.33;;;11.70;99.90;;;;;;4977565;28;20046;-71
2023/05/29 06:36:32;;;;;;;10.98;2.90;;;11.70;99.90;;;;;;4975161;28;20041;-71
2023/05/29 06:38:58;;;;;;;8.63;2.85;;;11.80;99.90;;;;;;4970291;28;20830;-71
2023/05/29 06:41:24;;;;;;;13.77;3.35;;;11.90;99.90;;;;;;4989157;28;20053;-73
2023/05/29 06:43:51;;;;;;;8.90;2.50;;;12.00;99.90;;;;;;4990905;28;20033;-74
2023/05/29 06:46:17;;;;;;;7.85;2.47;;;12.00;99.90;;;;;;4987676;28;20052;-71
2023/05/29 06:48:43;;;;;;;10.00;2.70;;;12.10;99.90;;;;;;4988231;28;20041;-71
2023/05/29 06:51:11;;;;;;;6.05;2.10;;;12.10;99.90;;;;;;4974120;28;20576;-71
2023/05/29 06:53:41;;;;;;;9.95;2.95;;;12.20;99.90;;;;;;4983251;28;20498;-70
2023/05/29 06:56:07;;;;;;;12.15;3.28;;;12.30;99.90;;;;;;4986098;28;20424;-71
2023/05/29 06:58:33;;;;;;;10.98;2.90;;;12.20;99.90;;;;;;4983863;28;20053;-72
2023/05/29 07:01:00;;;;;;;8.93;2.85;;;12.10;99.90;;;;;;4990229;28;20137;-71
2023/05/29 07:03:26;;;;;;;13.00;2.90;;;12.00;99.90;;;;;;4984497;28;20745;-72
2023/05/29 07:05:52;;;;;;;9.40;2.70;;;12.10;99.90;;;;;;4992011;28;20053;-72
2023/05/29 07:08:18;;;;;;;10.45;3.10;;;12.20;99.90;;;;;;4986389;28;20057;-72
2023/05/29 07:10:44;;;;;;;8.23;2.70;;;12.30;99.90;;;;;;4997953;28;20053;-71
2023/05/29 07:13:10;;;;;;;10.15;3.28;;;12.40;99.90;;;;;;4970352;28;20446;-72
2023/05/29 07:15:37;;;;;;;9.30;2.88;;;12.40;99.90;;;;;;4988853;28;20188;-72
2023/05/29 07:18:03;;;;;;;11.25;2.65;;;12.50;99.90;;;;;;4986462;28;20041;-72
2023/05/29 07:20:28;;;;;;;6.15;2.40;;;12.60;99.90;;;;;;4991517;28;20072;-72
2023/05/29 07:22:54;;;;;;;11.48;3.00;;;12.80;99.90;;;;;;4985741;28;20405;-72
2023/05/29 07:25:20;;;;;;;9.00;2.75;;;12.80;99.90;;;;;;4985447;28;20046;-72
2023/05/29 07:27:45;;;;;;;8.80;2.55;;;12.90;99.90;;;;;;4986788;28;20057;-72
2023/05/29 07:30:12;;;;;;;9.68;2.75;;;13.10;99.90;;;;;;4990806;28;20132;-72
2023/05/29 07:32:37;;;;;;;;;;;13.20;99.90;;;;;;4992127;28;20141;-72
2023/05/29 07:35:03;;;;;;;8.32;2.25;;;13.40;99.90;;;;;;4953147;28;20020;-72
2023/05/29 07:37:30;;;;;;;11.98;2.85;;;13.50;99.90;;;;;;4991342;28;20100;-72
2023/05/29 07:39:55;;;;;;;11.88;3.20;;;13.40;95.20;;;;;;4992750;28;20062;-72
2023/05/29 07:42:21;;;;;;;10.80;2.60;;;13.40;99.90;;;;;;4979090;28;20045;-72
2023/05/29 07:44:47;;;;;;;9.40;2.65;;;13.50;99.90;;;;;;4996121;28;20042;-72
2023/05/29 07:47:14;;;;;;;11.25;2.95;;;13.70;99.90;;;;;;4978643;28;20156;-72
2023/05/29 07:49:40;;;;;;;11.50;2.55;;;13.80;99.90;;;;;;4993309;28;20396;-72
2023/05/29 07:52:05;;;;;;;8.90;2.53;;;13.90;99.90;;;;;;4993512;28;20042;-72
2023/05/29 07:54:32;;;;;;;9.50;2.65;;;14.00;76.20;;;;;;4991283;28;20041;-73
2023/05/29 07:57:09;;;;;;;10.73;2.47;;;14.00;7.00;;;;;;4993553;28;20045;-71
2023/05/29 07:59:35;;;;;;;7.22;2.08;;;13.80;26.20;;;;;;4982172;28;20038;-72
2023/05/29 08:02:02;;;;;;;;;;;13.90;52.50;;;;;;4959281;28;20501;-71
2023/05/29 08:04:28;;;;;;;;;;;14.10;21.10;;;;;;4994845;28;19917;-71
2023/05/29 08:06:54;;;;;;;11.32;2.85;;;14.20;25.40;;;;;;4992035;28;20008;-71
2023/05/29 08:09:20;;;;;;;11.50;2.78;;;14.20;6.20;;;;;;4986342;28;20525;-72
2023/05/29 08:11:47;;;;;;;7.22;2.33;;;14.40;29.00;;;;;;5009048;28;20124;-74
2023/05/29 08:14:13;;;;;;;;;;;14.60;9.50;;;;;;4986432;28;20050;-71
2023/05/29 08:16:39;;;;;;;8.48;2.72;;;14.80;1.00;;;;;;4994981;28;19977;-71
2023/05/29 08:19:05;;;;;;;8.65;2.42;;;14.80;1.00;;;;;;4978395;28;20466;-71
2023/05/29 08:21:31;;;;;;;5.82;2.05;;;14.90;1.00;;;;;;4978205;28;20041;-71
2023/05/29 08:23:57;;;;;;;8.73;2.60;;;15.00;1.00;;;;;;4990646;28;20045;-71
2023/05/29 08:26:23;;;;;;;11.15;2.70;;;15.00;1.00;;;;;;4972185;28;20073;-71
2023/05/29 08:28:49;;;;;;;11.95;4.03;;;15.00;1.00;;;;;;4977547;28;20104;-71
2023/05/29 08:31:16;;;;;;;12.18;3.63;;;14.90;1.00;;;;;;4968609;28;20034;-70
2023/05/29 08:33:42;;;;;;;11.15;3.15;;;14.70;1.00;;;;;;4981671;28;20412;-70
2023/05/29 08:37:01;;;;;;;8.30;2.65;;;14.40;1.00;;;;;;5149345;27;20579;-73
2023/05/29 08:39:27;;;;;;;10.38;2.95;;;14.40;1.00;;;;;;5130311;27;20049;-70
2023/05/29 08:42:01;;;;;;;10.82;3.10;;;14.30;1.00;;;;;;5113466;27;20075;-70
2023/05/29 08:44:30;;;;;;;10.13;2.60;;;14.20;1.00;;;;;;5113447;27;20124;-70
2023/05/29 08:46:56;;;;;;;7.53;2.25;;;14.20;1.00;;;;;;5113201;27;20462;-70
2023/05/29 08:49:22;;;;;;;11.18;2.33;;;14.30;1.00;;;;;;5144169;27;20043;-70
2023/05/29 08:51:54;;;;;;;9.50;2.72;;;14.40;7.20;;;;;;5130642;27;20475;-70
2023/05/29 08:54:20;;;;;;;8.65;2.67;;;14.50;1.00;;;;;;5130564;27;20034;-70
2023/05/29 08:56:46;;;;;;;7.20;2.50;;;14.50;6.20;;;;;;5130062;27;20381;-69
2023/05/29 08:59:12;;;;;;;8.20;2.25;;;14.50;1.00;;;;;;5130667;27;20486;-70
2023/05/29 09:01:38;;;;;;;;;;;14.50;2.90;;;;;;5130640;27;20118;-70
2023/05/29 09:04:04;;;;;;;7.32;2.00;;;14.50;1.00;;;;;;5113374;27;20327;-73
2023/05/29 09:06:30;;;;;;;8.23;2.53;;;14.50;1.00;;;;;;5125598;27;20043;-70
2023/05/29 09:08:57;;;;;;;12.20;3.08;;;14.50;16.40;;;;;;5129920;27;20118;-70
2023/05/29 09:11:23;;;;;;;9.35;2.65;;;14.40;1.00;;;;;;5126964;27;20049;-70
2023/05/29 09:13:49;;;;;;;8.23;2.30;;;14.20;1.00;;;;;;5164297;27;20043;-70
2023/05/29 09:16:17;;;;;;;7.65;2.40;;;14.30;29.10;;;;;;5106622;27;20165;-70
2023/05/29 09:18:45;;;;;;;12.75;3.13;;;14.60;75.20;;;;;;5128924;27;20042;-70
2023/05/29 09:21:26;;;;;;;9.95;2.92;;;14.60;1.00;;;;;;5122637;27;20509;-69
2023/05/29 09:24:03;;;;;;;11.02;2.67;;;14.80;1.00;;;;;;5123633;27;20603;-69
2023/05/29 09:26:29;;;;;;;8.32;2.47;;;14.90;1.00;;;;;;5126692;27;20046;-68
2023/05/29 09:28:55;;;;;;;11.13;2.88;;;15.00;1.00;;;;;;5095041;28;20054;-68
2023/05/29 09:31:21;;;;;;;;;;;15.20;1.00;;;;;;5106565;27;20085;-69
2023/05/29 09:33:51;;;;;;;11.10;2.88;;;15.30;1.00;;;;;;5135042;27;19924;-69
2023/05/29 09:36:23;;;;;;;8.02;2.05;;;15.40;1.00;;;;;;5107665;28;20083;-69
2023/05/29 09:38:50;;;;;;;8.20;2.72;;;15.60;1.00;;;;;;5092022;28;20035;-68
2023/05/29 09:41:23;;;;;;;10.52;2.72;;;15.60;1.00;;;;;;5105004;28;20039;-69
2023/05/29 09:43:49;;;;;;;9.82;2.85;;;15.70;1.00;;;;;;5140615;27;20126;-69
2023/05/29 09:46:19;;;;;;;8.65;2.60;;;15.70;1.00;;;;;;5107682;28;20397;-69
2023/05/29 09:48:47;;;;;;;9.60;3.35;;;15.50;1.00;;;;;;5077793;28;20043;-70
2023/05/29 09:51:23;;;;;;;11.98;3.08;;;15.10;1.00;;;;;;5113242;28;20399;-69
2023/05/29 09:53:50;;;;;;;10.77;2.60;;;15.40;1.00;;;;;;5106290;27;20030;-69
2023/05/29 09:56:17;;;;;;;9.27;3.10;;;15.60;1.00;;;;;;5094820;28;20058;-69
2023/05/29 09:58:47;;;;;;;8.93;2.78;;;15.50;1.00;;;;;;5094703;28;20925;-69
2023/05/29 10:01:16;;;;;;;8.88;2.78;;;15.60;1.00;;;;;;5077780;28;20509;-69
2023/05/29 10:03:42;;;;;;;11.82;2.90;;;15.90;1.00;;;;;;5083545;28;20051;-69
2023/05/29 10:06:16;;;;;;;7.85;2.58;;;16.00;1.00;;;;;;5113391;28;20047;-68
2023/05/29 10:08:53;;;;;;;10.45;2.70;;;16.10;1.00;;;;;;5094352;28;20466;-69
2023/05/29 10:11:24;;;;;;;11.60;3.00;;;16.40;1.00;;;;;;5094447;28;20432;-69
2023/05/29 10:13:51;;;;;;;8.15;2.83;;;16.40;1.00;;;;;;5077486;28;20689;-68
2023/05/29 10:16:21;;;;;;;10.27;2.47;;;16.40;99.90;;;;;;5094202;28;20490;-68
2023/05/29 10:18:57;;;;;;;9.73;2.72;;;16.70;1.00;;;;;;5077397;28;20201;-69
2023/05/29 10:21:26;;;;;;;8.82;2.45;;;16.40;99.90;;;;;;5093581;28;20035;-69
2023/05/29 10:23:54;;;;;;;10.00;2.65;;;16.40;1.00;;;;;;5094485;28;20076;-69
2023/05/29 10:26:25;;;;;;;10.23;2.97;;;16.00;99.90;;;;;;5094963;28;20454;-70
2023/05/29 10:29:26;;;;;;;13.32;2.83;;;16.10;1.00;;;;;;5094023;28;20054;-70
2023/05/29 10:32:00;;;;;;;7.70;2.58;;;15.80;99.90;;;;;;5074290;28;20399;-69
2023/05/29 10:34:30;;;;;;;10.45;2.75;;;16.00;1.00;;;;;;5122594;27;20104;-69
2023/05/29 10:37:37;;;;;;;15.65;3.15;;;15.90;1.00;;;;;;5111157;28;20047;-70
2023/05/29 10:40:12;;;;;;;8.88;2.55;;;15.90;1.00;;;;;;5032505;28;20467;-70
2023/05/29 10:42:43;;;;;;;11.00;2.78;;;16.00;1.00;;;;;;5088290;28;20046;-69
2023/05/29 10:45:09;;;;;;;9.52;2.78;;;15.80;99.90;;;;;;5093035;28;20439;-69
2023/05/29 10:47:35;;;;;;;9.00;2.38;;;15.90;1.00;;;;;;5093822;28;20042;-69
2023/05/29 10:50:01;;;;;;;10.32;2.55;;;16.30;1.00;;;;;;5128291;27;20032;-70
2023/05/29 10:52:34;;;;;;;11.60;2.70;;;16.30;99.90;;;;;;5094108;28;20043;-70
2023/05/29 10:55:03;;;;;;;11.48;2.85;;;16.30;99.90;;;;;;5093560;28;20102;-69
2023/05/29 10:57:30;;;;;;;10.13;2.78;;;16.40;99.90;;;;;;5093936;28;20491;-70
2023/05/29 11:00:04;;;;;;;9.38;2.30;;;16.30;99.90;;;;;;5088182;28;20035;-69
2023/05/29 11:02:30;;;;;;;12.77;2.70;;;16.30;99.90;;;;;;5094514;28;20052;-69
2023/05/29 11:05:19;;;;;;;8.57;2.63;;;16.30;99.90;;;;;;5093502;28;20050;-69
2023/05/29 11:08:06;;;;;;;10.25;3.00;;;15.90;99.90;;;;;;5093614;28;20043;-75
2023/05/29 11:10:55;;;;;;;11.40;3.00;;;15.80;99.90;;;;;;5127714;27;20470;-69
2023/05/29 11:13:37;;;;;;;9.27;2.42;;;15.90;99.90;;;;;;5101146;28;20063;-69
2023/05/29 11:16:13;;;;;;;10.20;2.42;;;16.00;99.90;;;;;;5092390;28;20399;-69
2023/05/29 11:18:45;;;;;;;9.38;2.55;;;16.20;99.90;;;;;;5093429;28;20148;-69
2023/05/29 11:21:47;;;;;;;7.30;2.30;;;16.50;99.90;;;;;;5093125;28;20489;-69
2023/05/29 11:24:33;;;;;;;9.48;2.67;;;16.50;99.90;;;;;;5085495;28;20063;-68
2023/05/29 11:27:04;;;;;;;10.02;2.50;;;16.30;99.90;;;;;;5097290;28;20559;-69
2023/05/29 11:29:30;;;;;;;8.48;2.33;;;16.30;99.90;;;;;;5090990;27;20444;-69
2023/05/29 11:32:05;;;;;;;8.70;2.90;;;16.50;99.90;;;;;;5112524;27;20042;-68
2023/05/29 11:34:32;;;;;;;10.05;2.63;;;16.50;99.90;;;;;;5091694;28;20150;-69
2023/05/29 11:37:02;;;;;;;10.02;2.50;;;16.60;99.90;;;;;;5095982;28;20052;-68
2023/05/29 11:39:29;;;;;;;7.45;2.35;;;16.70;99.90;;;;;;5091779;28;20122;-68
2023/05/29 11:41:55;;;;;;;7.38;2.50;;;17.00;99.90;;;;;;5126957;27;20043;-68
2023/05/29 11:44:24;;;;;;;11.57;3.20;;;17.30;99.90;;;;;;5126671;27;20086;-68
2023/05/29 11:47:06;;;;;;;10.02;2.85;;;17.20;99.90;;;;;;5092565;28;20044;-69
2023/05/29 11:49:36;;;;;;;7.78;2.58;;;17.20;99.90;;;;;;5093124;28;20043;-68
2023/05/29 11:52:10;;;;;;;8.15;2.38;;;17.40;99.90;;;;;;5092583;28;20130;-68
2023/05/29 11:54:36;;;;;;;10.38;2.88;;;17.40;99.90;;;;;;5092480;28;20043;-68
2023/05/29 11:57:02;;;;;;;7.28;2.42;;;17.40;99.90;;;;;;5092130;28;20062;-68
2023/05/29 11:59:34;;;;;;;9.65;2.88;;;17.40;99.90;;;;;;5092622;28;20483;-68
2023/05/29 12:02:03;;;;;;;11.95;2.90;;;17.20;99.90;;;;;;5126480;27;20119;-68
2023/05/29 12:04:29;;;;;;;13.43;3.00;;;17.20;99.90;;;;;;5126518;27;20551;-68
2023/05/29 12:06:55;;;;;;;6.82;2.50;;;17.10;99.90;;;;;;5092293;28;20047;-68
2023/05/29 12:09:26;;;;;;;7.35;2.00;;;17.00;99.90;;;;;;5075700;28;20052;-68
2023/05/29 12:11:51;;;;;;;5.72;2.00;;;17.20;99.90;;;;;;5110924;28;20040;-68
2023/05/29 12:14:17;;;;;;;9.82;2.83;;;17.40;99.90;;;;;;5092376;28;20116;-68
2023/05/29 12:16:43;;;;;;;10.60;2.85;;;17.40;99.90;;;;;;5108780;28;20047;-69
2023/05/29 12:19:09;;;;;;;9.68;2.55;;;17.40;99.90;;;;;;5092126;28;20050;-68
2023/05/29 12:21:35;;;;;;;10.23;2.38;;;17.00;99.90;;;;;;5089223;28;20073;-68
2023/05/29 12:24:01;;;;;;;9.88;2.53;;;16.90;99.90;;;;;;5092908;28;20044;-68
2023/05/29 12:26:29;;;;;;;8.57;2.67;;;16.60;99.90;;;;;;5090660;28;20058;-72
2023/05/29 12:28:55;;;;;;;8.05;2.40;;;16.60;99.90;;;;;;5080541;28;20047;-68
2023/05/29 12:31:28;;;;;;;11.63;2.55;;;16.80;99.90;;;;;;5073906;28;20040;-68
2023/05/29 12:34:02;;;;;;;10.52;2.40;;;16.80;99.90;;;;;;5091038;28;20043;-78
2023/05/29 12:36:28;;;;;;;8.43;2.30;;;17.00;99.90;;;;;;5090133;28;20055;-77
2023/05/29 12:38:53;;;;;;;7.70;2.50;;;17.20;99.90;;;;;;5092648;28;20052;-77
2023/05/29 12:41:30;;;;;;;8.00;2.20;;;17.00;99.90;;;;;;5092523;28;20050;-75
2023/05/29 12:43:57;;;;;;;9.98;2.60;;;17.30;99.90;;;;;;5093783;28;20347;-76
2023/05/29 12:46:26;;;;;;;9.73;2.40;;;17.30;99.90;;;;;;5094991;28;20110;-76
2023/05/29 12:48:56;;;;;;;7.57;1.95;;;17.10;99.90;;;;;;5110365;28;20055;-76
2023/05/29 12:51:28;;;;;;;7.50;2.00;;;17.10;99.90;;;;;;5110254;28;20044;-76
2023/05/29 12:53:54;;;;;;;5.85;2.15;;;17.30;99.90;;;;;;5110895;28;20055;-76
2023/05/29 12:56:26;;;;;;;10.30;2.75;;;17.40;99.90;;;;;;5110443;28;20055;-77
2023/05/29 12:58:52;;;;;;;8.35;2.53;;;17.40;99.90;;;;;;5110673;28;20047;-77
2023/05/29 13:01:18;;;;;;;;;;;17.50;99.90;;;;;;5110709;28;20047;-77